Time;durP1;ratioP1;P1;durP2;ratioP2;P2;SDS_P1;SDS_P2;PMS_P1;PMS_P2;Temp;Humidity;BMP_temperature;BMP_pressure;BME280_temperature;BME280_humidity;BME280_pressure;Samples;Min_cycle;Max_cycle;Signal;HPM_P1;HPM_P2
2021/12/22 00:03:31;;;;;;;5.82;2.58;;;-3.50;99.90;;;;;;20726979;28;20041;-48
2021/12/22 00:13:33;;;;;;;6.20;2.63;;;-3.60;99.90;;;;;;20740513;28;20038;-48
2021/12/22 00:23:37;;;;;;;5.43;2.30;;;-3.70;99.90;;;;;;20806849;28;20038;-49
2021/12/22 00:33:48;;;;;;;4.57;2.22;;;-3.70;99.90;;;;;;20806028;28;20029;-49
2021/12/22 00:43:51;;;;;;;5.13;1.77;;;-3.60;99.90;;;;;;20804786;28;20110;-48
2021/12/22 00:53:53;;;;;;;5.57;2.47;;;-3.70;99.90;;;;;;20788346;28;20045;-49
2021/12/22 01:03:56;;;;;;;3.67;1.90;;;-3.80;99.90;;;;;;20803636;28;20110;-49
2021/12/22 01:13:59;;;;;;;7.20;2.45;;;-3.90;99.90;;;;;;20802906;28;20087;-50
2021/12/22 01:34:23;;;;;;;7.05;2.20;;;-3.90;99.90;;;;;;20801811;28;20045;-49
2021/12/22 01:45:27;;;;;;;5.43;2.70;;;-4.00;99.90;;;;;;20800984;28;20053;-49
2021/12/22 01:55:25;;;;;;;6.93;2.75;;;-4.20;99.90;;;;;;20797484;28;20045;-49
2021/12/22 02:05:28;;;;;;;7.57;2.50;;;-4.30;99.90;;;;;;20800159;28;20041;-51
2021/12/22 02:15:34;;;;;;;6.07;3.08;;;-4.40;99.90;;;;;;20799647;28;20414;-48
2021/12/22 02:25:45;;;;;;;6.03;2.75;;;-4.50;99.90;;;;;;20815539;28;20045;-49
2021/12/22 02:36:08;;;;;;;5.50;2.50;;;-4.40;99.90;;;;;;20815222;28;20370;-53
2021/12/22 02:46:12;;;;;;;7.03;2.95;;;-4.60;99.90;;;;;;20732695;28;20054;-50
2021/12/22 03:16:36;;;;;;;5.95;2.65;;;-4.30;99.90;;;;;;20796436;28;20064;-49
2021/12/22 03:26:44;;;;;;;5.75;2.42;;;-4.30;99.90;;;;;;20811416;28;20072;-49
2021/12/22 03:36:46;;;;;;;5.80;2.92;;;-4.40;99.90;;;;;;20809810;28;20199;-49
2021/12/22 03:46:51;;;;;;;4.93;2.80;;;-4.30;99.90;;;;;;20809512;28;20091;-49
2021/12/22 03:56:54;;;;;;;6.05;2.72;;;-3.90;99.90;;;;;;20808733;28;20246;-49
2021/12/22 04:06:56;;;;;;;6.90;2.80;;;-3.80;99.90;;;;;;20808198;28;20107;-51
2021/12/22 04:17:01;;;;;;;6.05;2.80;;;-3.80;99.90;;;;;;20764941;28;20490;-49
2021/12/22 04:27:04;;;;;;;7.13;3.00;;;-3.80;99.90;;;;;;20724682;28;20038;-48
2021/12/22 04:37:07;;;;;;;4.72;2.53;;;-3.90;99.90;;;;;;20734483;28;20084;-48
2021/12/22 04:47:10;;;;;;;3.05;1.80;;;-3.90;99.90;;;;;;20804324;28;20041;-52
2021/12/22 04:57:12;;;;;;;5.10;2.00;;;-4.10;99.90;;;;;;20804640;28;20037;-51
2021/12/22 05:07:15;;;;;;;4.88;2.10;;;-4.30;99.90;;;;;;20804078;28;20067;-49
2021/12/22 05:17:22;;;;;;;4.65;2.00;;;-4.40;99.90;;;;;;20803175;28;20045;-50
2021/12/22 05:27:26;;;;;;;5.18;2.80;;;-4.50;99.90;;;;;;20802144;28;20083;-51
2021/12/22 05:37:28;;;;;;;6.15;2.45;;;-4.40;99.90;;;;;;20801409;28;20803;-52
2021/12/22 05:47:31;;;;;;;6.47;2.80;;;-4.10;99.90;;;;;;20655946;28;20038;-48
2021/12/22 05:57:37;;;;;;;6.45;2.78;;;-4.10;99.90;;;;;;20654524;28;20093;-48
2021/12/22 06:07:39;;;;;;;3.78;1.55;;;-3.80;99.90;;;;;;20655437;28;20042;-49
2021/12/22 06:17:42;;;;;;;4.78;2.25;;;-4.00;99.90;;;;;;20749879;28;20033;-48
2021/12/22 06:27:44;;;;;;;5.32;2.28;;;-4.10;99.90;;;;;;20799937;28;20449;-53
2021/12/22 06:37:47;;;;;;;5.55;2.42;;;-4.10;99.90;;;;;;20798975;28;20075;-48
2021/12/22 06:47:53;;;;;;;5.95;1.92;;;-4.20;99.90;;;;;;20798462;28;20402;-49
2021/12/22 06:57:56;;;;;;;4.15;2.30;;;-4.30;99.90;;;;;;20738301;28;20042;-50
2021/12/22 07:07:59;;;;;;;6.03;2.50;;;-4.40;99.90;;;;;;20725924;28;20441;-50
2021/12/22 07:18:02;;;;;;;4.40;1.98;;;-4.10;99.90;;;;;;20731154;28;20386;-48
2021/12/22 07:28:05;;;;;;;6.20;2.22;;;-4.00;99.90;;;;;;20729479;28;20041;-50
2021/12/22 07:38:30;;;;;;;4.60;2.55;;;-4.10;99.90;;;;;;20747443;28;20057;-49
2021/12/22 07:48:33;;;;;;;4.15;2.47;;;-3.90;99.90;;;;;;20809673;28;20033;-48
2021/12/22 07:58:39;;;;;;;6.55;1.90;;;-3.70;99.90;;;;;;20808620;28;20042;-48
2021/12/22 08:08:42;;;;;;;4.60;2.00;;;-3.00;99.90;;;;;;20808512;28;20033;-51
2021/12/22 08:18:44;;;;;;;5.13;2.17;;;-2.20;99.90;;;;;;20806588;28;20034;-49
2021/12/22 08:28:49;;;;;;;4.55;2.80;;;-1.40;99.90;;;;;;20807147;28;20045;-47
2021/12/22 08:38:52;;;;;;;5.00;2.30;;;-0.70;99.90;;;;;;20806134;28;20049;-48
2021/12/22 08:48:56;;;;;;;4.68;2.15;;;0.10;99.90;;;;;;20805247;28;20037;-48
2021/12/22 08:58:59;;;;;;;4.45;2.42;;;0.90;99.90;;;;;;20805080;28;20029;-48
2021/12/22 09:09:03;;;;;;;6.57;3.22;;;1.70;99.90;;;;;;20805206;28;20033;-50
2021/12/22 09:19:07;;;;;;;3.83;2.15;;;2.50;99.90;;;;;;20802846;28;20099;-49
2021/12/22 09:29:10;;;;;;;6.68;2.35;;;2.90;99.90;;;;;;20802077;28;20092;-48
2021/12/22 09:39:13;;;;;;;5.40;2.78;;;3.40;99.90;;;;;;20789036;28;20038;-48
2021/12/22 09:50:24;;;;;;;6.55;2.88;;;3.70;99.90;;;;;;20719678;28;20029;-51
2021/12/22 09:59:50;;;;;;;5.63;2.28;;;4.00;99.90;;;;;;20707233;28;20647;-51
2021/12/22 10:09:54;;;;;;;4.20;2.15;;;4.50;99.90;;;;;;20719006;28;20434;-51
2021/12/22 10:20:05;;;;;;;5.35;2.60;;;4.70;99.90;;;;;;20785072;28;20026;-50
2021/12/22 10:30:23;;;;;;;;;;;4.70;99.90;;;;;;20800413;28;20042;-49
2021/12/22 10:40:31;;;;;;;3.60;2.35;;;4.90;99.90;;;;;;20803800;28;19917;-49
2021/12/22 10:50:34;;;;;;;6.03;2.92;;;5.20;99.90;;;;;;20814415;28;20033;-51
2021/12/22 11:00:37;;;;;;;4.63;2.97;;;5.20;98.80;;;;;;20732075;28;20103;-50
2021/12/22 11:10:40;;;;;;;7.30;3.38;;;5.20;99.30;;;;;;20732450;28;20029;-51
2021/12/22 11:20:46;;;;;;;7.88;4.25;;;5.20;98.60;;;;;;20730764;28;20096;-49
2021/12/22 11:30:49;;;;;;;9.30;4.53;;;5.20;99.40;;;;;;20729565;28;20069;-48
2021/12/22 11:40:55;;;;;;;8.38;4.53;;;5.20;99.10;;;;;;20769638;28;20115;-49
2021/12/22 11:50:59;;;;;;;9.85;5.30;;;5.20;99.40;;;;;;20809321;28;20049;-48
2021/12/22 12:01:09;;;;;;;7.60;4.85;;;5.30;99.40;;;;;;20809200;28;20034;-49
2021/12/22 12:11:16;;;;;;;9.88;5.40;;;5.40;99.80;;;;;;20809680;28;20083;-48
2021/12/22 12:21:46;;;;;;;9.43;5.50;;;5.40;99.10;;;;;;20807293;28;20091;-48
2021/12/22 12:31:49;;;;;;;9.70;5.50;;;5.20;99.90;;;;;;20806444;28;20033;-48
2021/12/22 12:42:09;;;;;;;11.70;6.15;;;5.00;99.90;;;;;;20805657;28;20506;-50
2021/12/22 12:52:20;;;;;;;8.03;4.73;;;5.00;99.90;;;;;;20804504;28;20042;-47
2021/12/22 13:02:28;;;;;;;11.05;5.97;;;4.70;99.90;;;;;;20802889;28;20390;-48
2021/12/22 13:12:48;;;;;;;10.68;6.55;;;4.40;99.90;;;;;;20803426;28;20037;-49
2021/12/22 13:22:53;;;;;;;15.55;7.32;;;3.90;99.90;;;;;;20802484;28;20059;-49
2021/12/22 13:33:08;;;;;;;13.75;7.03;;;3.20;99.90;;;;;;20801726;28;20034;-49
2021/12/22 13:43:39;;;;;;;14.23;7.45;;;2.60;99.90;;;;;;20756155;28;20381;-49
2021/12/22 13:53:44;;;;;;;13.38;7.45;;;2.20;99.90;;;;;;20719048;28;20034;-49
2021/12/22 14:03:49;;;;;;;12.77;6.80;;;1.70;99.90;;;;;;20718950;28;20038;-49
2021/12/22 14:13:53;;;;;;;14.00;8.27;;;1.40;99.90;;;;;;20739934;28;20037;-50
2021/12/22 14:24:00;;;;;;;16.13;8.60;;;1.30;99.90;;;;;;20817119;28;20547;-51
2021/12/22 14:34:08;;;;;;;18.48;9.25;;;1.00;99.90;;;;;;20815424;28;20033;-48
2021/12/22 14:44:23;;;;;;;19.15;9.00;;;0.70;99.90;;;;;;20815136;28;20126;-50
2021/12/22 14:54:25;;;;;;;15.85;9.18;;;0.30;99.90;;;;;;20814479;28;20041;-51
2021/12/22 15:04:28;;;;;;;15.77;8.82;;;-0.10;99.90;;;;;;20813408;28;20041;-54
2021/12/22 15:14:31;;;;;;;17.90;9.32;;;-0.70;99.90;;;;;;20813641;28;20084;-49
2021/12/22 15:24:34;;;;;;;20.40;10.65;;;-1.40;99.90;;;;;;20811141;28;20064;-52
2021/12/22 15:34:36;;;;;;;20.58;10.35;;;-1.90;99.90;;;;;;20811142;28;20624;-51
2021/12/22 15:44:39;;;;;;;21.00;10.25;;;-2.20;99.90;;;;;;20810120;28;20115;-49
2021/12/22 15:54:41;;;;;;;20.05;10.57;;;-2.50;99.90;;;;;;20810060;28;20381;-49
2021/12/22 16:04:45;;;;;;;21.63;10.32;;;-2.70;99.90;;;;;;20809118;28;20103;-52
2021/12/22 16:14:48;;;;;;;17.35;9.38;;;-2.90;99.90;;;;;;20808303;28;20103;-55
2021/12/22 16:24:51;;;;;;;52.95;22.33;;;-3.10;99.90;;;;;;20807192;28;20037;-51
2021/12/22 16:34:54;;;;;;;25.58;13.00;;;-3.20;99.90;;;;;;20790191;28;20037;-49
2021/12/22 16:44:56;;;;;;;27.20;13.10;;;-3.20;99.90;;;;;;20804542;28;20107;-52
2021/12/22 16:54:59;;;;;;;20.27;10.50;;;-3.50;99.90;;;;;;20804593;28;20095;-49
2021/12/22 17:05:02;;;;;;;18.95;9.25;;;-3.60;99.90;;;;;;20804101;28;20532;-50
2021/12/22 17:15:15;;;;;;;15.30;7.67;;;-3.60;99.90;;;;;;21141107;27;20390;-51
2021/12/22 17:25:20;;;;;;;14.38;8.02;;;-3.50;99.90;;;;;;21138694;28;20445;-52
2021/12/22 17:35:23;;;;;;;16.15;8.90;;;-3.50;99.90;;;;;;21137803;28;20039;-51
2021/12/22 17:45:26;;;;;;;13.23;7.13;;;-3.70;99.90;;;;;;21137368;28;20109;-49
2021/12/22 17:55:34;;;;;;;13.65;7.05;;;-3.70;99.90;;;;;;21136721;28;20454;-55
2021/12/22 18:05:40;;;;;;;17.70;6.95;;;-3.80;99.90;;;;;;21135759;28;20051;-49
2021/12/22 18:15:44;;;;;;;16.27;7.60;;;-3.90;99.90;;;;;;21134852;28;20635;-49
2021/12/22 18:25:48;;;;;;;12.18;6.68;;;-3.90;99.90;;;;;;21082606;28;20039;-49
2021/12/22 18:36:01;;;;;;;17.48;9.73;;;-3.90;99.90;;;;;;21060598;28;20491;-48
2021/12/22 18:46:05;;;;;;;18.00;9.73;;;-3.90;99.90;;;;;;21076295;28;20442;-50
2021/12/22 18:56:09;;;;;;;17.88;8.93;;;-3.90;99.90;;;;;;21075532;28;20040;-49
2021/12/22 19:06:14;;;;;;;18.02;9.82;;;-4.00;99.90;;;;;;21074321;28;20507;-50
2021/12/22 19:16:17;;;;;;;13.90;7.32;;;-4.20;99.90;;;;;;21074183;28;20062;-49
2021/12/22 19:26:21;;;;;;;23.85;8.85;;;-4.10;99.90;;;;;;21072907;28;20032;-49
2021/12/22 19:36:25;;;;;;;15.43;7.95;;;-4.20;99.90;;;;;;21071285;28;20032;-51
2021/12/22 19:46:28;;;;;;;16.83;7.55;;;-4.20;99.90;;;;;;21071491;28;20552;-49
2021/12/22 19:56:30;;;;;;;11.88;6.35;;;-4.20;99.90;;;;;;21070335;28;20035;-49
2021/12/22 20:06:34;;;;;;;13.80;7.68;;;-4.10;99.90;;;;;;21052754;28;20097;-51
2021/12/22 20:16:36;;;;;;;15.43;8.20;;;-4.20;99.90;;;;;;21068920;28;20035;-49
2021/12/22 20:26:39;;;;;;;16.73;8.52;;;-4.30;99.90;;;;;;21068597;28;20036;-49
2021/12/22 20:36:43;;;;;;;18.45;8.10;;;-4.30;99.90;;;;;;21067921;28;20036;-51
2021/12/22 20:46:46;;;;;;;21.27;10.10;;;-4.30;99.90;;;;;;21051840;28;20093;-49
2021/12/22 20:56:48;;;;;;;20.65;10.05;;;-4.30;99.90;;;;;;21066489;28;20036;-49
2021/12/22 21:06:51;;;;;;;18.33;8.93;;;-4.20;99.90;;;;;;21066137;28;20420;-50
2021/12/22 21:16:53;;;;;;;19.65;9.90;;;-4.30;99.90;;;;;;21066337;28;20572;-48
2021/12/22 21:26:56;;;;;;;15.55;8.30;;;-4.20;99.90;;;;;;21066738;28;20089;-50
2021/12/22 21:37:00;;;;;;;20.90;9.95;;;-4.40;99.90;;;;;;21064381;28;20036;-48
2021/12/22 21:47:02;;;;;;;20.98;9.45;;;-4.50;99.90;;;;;;21064553;28;20032;-50
2021/12/22 21:57:06;;;;;;;25.33;11.57;;;-4.50;99.90;;;;;;21072499;28;20066;-51
2021/12/22 22:07:11;;;;;;;17.63;8.38;;;-4.60;99.90;;;;;;21079149;28;20052;-49
2021/12/22 22:17:13;;;;;;;20.90;10.23;;;-4.60;99.90;;;;;;21079138;28;20081;-49
2021/12/22 22:27:16;;;;;;;22.17;10.02;;;-4.70;99.90;;;;;;21080546;28;20036;-49
2021/12/22 22:37:19;;;;;;;23.50;11.05;;;-4.70;99.90;;;;;;21074726;28;20040;-51
2021/12/22 22:47:22;;;;;;;20.67;10.38;;;-4.80;99.90;;;;;;21076058;28;20085;-49
2021/12/22 22:57:25;;;;;;;15.73;8.50;;;-4.90;99.90;;;;;;21075224;28;20089;-49
2021/12/22 23:07:27;;;;;;;18.88;8.45;;;-4.90;99.90;;;;;;21075146;28;20485;-50
2021/12/22 23:17:30;;;;;;;17.92;8.80;;;-4.90;99.90;;;;;;21074292;28;20109;-48
2021/12/22 23:27:34;;;;;;;21.48;9.40;;;-4.90;99.90;;;;;;21073101;28;20036;-51
2021/12/22 23:37:43;;;;;;;17.35;8.90;;;-5.00;99.90;;;;;;21072199;28;20036;-49
2021/12/22 23:58:07;;;;;;;18.25;8.15;;;-4.90;99.90;;;;;;21070588;28;20028;-49
